createdAt,value
2022-12-15T09:38:50.190Z,101003.09
2022-12-15T09:48:00.969Z,101009.94
2022-12-15T09:50:35.709Z,101008.25
2022-12-15T09:53:03.467Z,101012.53
2022-12-15T09:55:32.692Z,101021.03
2022-12-15T09:58:30.405Z,101017.63
2022-12-15T10:01:22.047Z,101022.72
2022-12-15T10:04:20.800Z,101022.72
2022-12-15T10:06:57.653Z,101026.97
2022-12-15T10:09:30.520Z,101028.69
2022-12-15T10:12:06.700Z,101028.66
2022-12-15T10:15:18.313Z,101038.88
2022-12-15T10:20:40.760Z,101029.44
2022-12-15T10:23:16.656Z,101031.13
2022-12-15T10:26:20.722Z,101026.88
2022-12-15T10:29:06.570Z,101015.81
2022-12-15T10:31:41.963Z,101023.47
2022-12-15T10:34:18.347Z,101037.06
2022-12-15T10:36:51.140Z,101024.25
2022-12-15T10:39:17.902Z,101023.34
2022-12-15T10:41:44.398Z,101023.28
2022-12-15T10:44:32.073Z,101022.38
2022-12-15T10:46:59.269Z,101030.88
2022-12-15T10:49:25.717Z,101030.81
2022-12-15T10:51:52.088Z,101034.97
2022-12-15T10:54:18.862Z,101033.94
2022-12-15T10:56:50.123Z,101022.56
2022-12-15T10:59:22.862Z,101023.19
2022-12-15T11:01:50.907Z,101018.06
2022-12-15T11:04:33.754Z,101017.16
2022-12-15T11:07:02.924Z,101013.84
2022-12-15T11:09:34.312Z,101008.84
2022-12-15T11:12:20.446Z,101003.81
2022-12-15T11:14:49.727Z,101008.91
2022-12-15T11:17:20.818Z,101001.97
2022-12-15T11:20:02.722Z,100995.81
2022-12-15T11:22:45.885Z,100999.88
2022-12-15T11:25:36.770Z,100997.13
2022-12-15T11:28:11.272Z,100990.16
2022-12-15T11:30:46.099Z,101004.94
2022-12-15T11:33:12.866Z,101003.34
2022-12-15T11:36:09.875Z,101006.88
2022-12-15T11:38:47.374Z,101002.63
2022-12-15T11:41:33.937Z,101011.94
2022-12-15T11:44:23.936Z,101001.56
2022-12-15T11:47:20.574Z,100999.75
2022-12-15T11:50:07.643Z,100997.09
2022-12-15T11:52:49.027Z,100997.91
2022-12-15T11:55:18.498Z,101004.63
2022-12-15T11:58:01.061Z,101005.31
2022-12-15T12:00:34.935Z,100996.69
2022-12-15T12:03:11.521Z,101001.72
2022-12-15T12:06:25.918Z,101006.66
2022-12-15T12:09:16.973Z,101013.50
2022-12-15T12:12:11.974Z,101012.66
2022-12-15T12:14:51.149Z,101003.22
2022-12-15T12:17:42.417Z,101001.41
2022-12-15T12:20:18.519Z,100995.38
2022-12-15T12:23:05.047Z,100991.97
2022-12-15T12:25:39.973Z,100989.41
2022-12-15T12:29:01.821Z,100991.91
2022-12-15T12:31:51.599Z,100986.78
2022-12-15T12:34:26.880Z,100980.88
2022-12-15T12:36:55.082Z,100983.63
2022-12-15T12:39:25.458Z,100990.63
2022-12-15T12:42:07.508Z,100990.75
2022-12-15T12:44:37.629Z,100977.94
2022-12-15T12:47:11.746Z,100987.34
2022-12-15T12:49:45.303Z,100975.34
2022-12-15T12:52:31.305Z,100973.50
2022-12-15T12:55:21.166Z,100974.25
2022-12-15T12:57:47.742Z,100963.94
2022-12-15T13:00:36.305Z,100961.25
2022-12-15T13:03:12.381Z,100958.63
2022-12-15T13:05:42.381Z,100948.34
2022-12-15T13:08:08.809Z,100948.38
2022-12-15T13:10:37.881Z,100942.44
2022-12-15T13:13:29.671Z,100946.84
2022-12-15T13:16:27.820Z,100946.91
2022-12-15T13:19:03.536Z,100952.91
2022-12-15T13:21:42.564Z,100942.56
2022-12-15T13:24:34.337Z,100941.81
2022-12-15T13:27:19.879Z,100948.72
2022-12-15T13:30:00.158Z,100940.22
2022-12-15T13:32:26.655Z,100933.38
2022-12-15T13:34:56.666Z,100928.25
2022-12-15T13:37:51.430Z,100932.44
2022-12-15T13:40:35.185Z,100924.63
2022-12-15T13:43:04.916Z,100933.84
2022-12-15T13:45:37.545Z,100931.13
2022-12-15T13:48:35.410Z,100931.03
2022-12-15T13:51:25.565Z,100924.09
2022-12-15T13:54:16.763Z,100932.63
2022-12-15T13:57:04.302Z,100931.69
2022-12-15T13:59:41.985Z,100936.78
2022-12-15T14:02:36.135Z,100928.09
2022-12-15T14:05:20.025Z,100924.56
2022-12-15T14:07:56.551Z,100924.69
2022-12-15T14:10:45.170Z,100930.00
2022-12-15T14:13:25.030Z,100923.25
2022-12-15T14:16:07.321Z,100921.63
2022-12-15T14:18:42.100Z,100919.00
2022-12-15T14:21:30.323Z,100919.00
2022-12-15T14:24:36.550Z,100916.44
2022-12-15T14:26:44.429Z,100913.91
2022-12-15T14:35:40.684Z,100910.72
2022-12-15T14:41:40.729Z,100902.31
2022-12-15T14:44:38.284Z,100907.41
2022-12-15T14:47:12.448Z,100898.13
2022-12-15T14:49:42.818Z,100910.25
2022-12-15T14:52:26.703Z,100908.69
2022-12-15T14:54:59.160Z,100905.41
2022-12-15T14:57:40.852Z,100902.13
2022-12-15T15:00:49.286Z,100897.94
2022-12-15T15:06:01.038Z,100901.47
2022-12-15T15:08:29.642Z,100901.50
2022-12-15T15:11:00.418Z,100897.25
2022-12-15T15:13:40.219Z,100902.44
2022-12-15T15:16:14.448Z,100898.22
2022-12-15T15:18:42.608Z,100900.00
2022-12-15T15:21:17.400Z,100893.25
2022-12-15T15:24:25.517Z,100895.97
2022-12-15T15:26:53.303Z,100890.88
2022-12-15T15:30:09.419Z,100889.25
2022-12-15T15:32:59.017Z,100893.59
2022-12-15T15:35:31.842Z,100881.72
2022-12-15T15:38:04.955Z,100878.38
2022-12-15T15:40:33.897Z,100891.28
2022-12-15T15:43:00.540Z,100894.75
2022-12-15T15:45:27.782Z,100893.94
2022-12-15T15:47:56.299Z,100900.84
2022-12-15T15:50:28.959Z,100894.88
2022-12-15T15:52:56.938Z,100898.34
2022-12-15T15:55:29.961Z,100899.16
2022-12-15T15:57:57.798Z,100900.88
2022-12-15T16:00:25.586Z,100901.78
2022-12-15T16:02:52.414Z,100900.06
2022-12-15T16:05:20.910Z,100904.38
2022-12-15T16:07:47.636Z,100906.97
2022-12-15T16:10:17.023Z,100910.34
2022-12-15T16:12:53.208Z,100906.97
2022-12-15T16:15:23.240Z,100908.66
2022-12-15T16:17:50.019Z,100906.13
2022-12-15T16:20:19.176Z,100914.72
2022-12-15T16:22:49.970Z,100911.34
2022-12-15T16:25:48.419Z,100918.25
2022-12-15T16:28:25.053Z,100912.28
2022-12-15T16:30:52.249Z,100919.97
2022-12-15T16:33:19.826Z,100915.72
2022-12-15T16:35:48.242Z,100914.03
2022-12-15T16:38:19.488Z,100910.63
2022-12-15T16:40:46.152Z,100911.50
2022-12-15T16:43:21.836Z,100906.41
2022-12-15T16:45:53.774Z,100915.81
2022-12-15T16:48:20.882Z,100911.56
2022-12-15T16:50:56.199Z,100910.72
2022-12-15T16:53:29.624Z,100909.88
2022-12-15T16:55:59.658Z,100911.59
2022-12-15T16:58:27.825Z,100916.72
2022-12-15T17:00:54.942Z,100918.44
2022-12-15T17:03:25.654Z,100917.59
2022-12-15T17:05:55.607Z,100917.59
2022-12-15T17:08:40.111Z,100912.47
2022-12-15T17:11:11.829Z,100915.06
2022-12-15T17:13:45.851Z,100910.81
2022-12-15T17:16:15.827Z,100921.03
2022-12-15T17:18:42.857Z,100912.53
2022-12-15T17:21:16.752Z,100912.53
2022-12-15T17:23:45.898Z,100915.94
2022-12-15T17:26:29.528Z,100924.50
2022-12-15T17:29:06.090Z,100920.28
2022-12-15T17:31:35.652Z,100920.28
2022-12-15T17:34:27.222Z,100920.28
2022-12-15T17:36:54.522Z,100923.69
2022-12-15T17:39:22.294Z,100927.09
2022-12-15T17:41:59.863Z,100922.84
2022-12-15T17:44:35.111Z,100927.16
2022-12-15T17:47:07.057Z,100927.16
2022-12-15T17:49:38.977Z,100930.56
2022-12-15T17:52:28.480Z,100932.28
2022-12-15T17:54:55.758Z,100939.94
2022-12-15T17:57:22.521Z,100939.91
2022-12-15T17:59:49.015Z,100940.69
2022-12-15T18:02:15.914Z,100932.13
2022-12-15T18:04:43.685Z,100927.81
2022-12-15T18:07:28.208Z,100932.84
2022-12-15T18:09:55.041Z,100937.09
2022-12-15T18:12:26.411Z,100938.75
2022-12-15T18:14:55.739Z,100948.16
2022-12-15T18:17:23.710Z,100949.78
2022-12-15T18:19:50.100Z,100952.25
2022-12-15T18:22:23.696Z,100952.25
2022-12-15T18:24:52.850Z,100958.19
2022-12-15T18:27:28.287Z,100942.78
2022-12-15T18:29:56.433Z,100959.81
2022-12-15T18:32:27.189Z,100961.47
2022-12-15T18:34:54.872Z,100956.31
2022-12-15T18:37:24.625Z,100952.03
2022-12-15T18:39:51.171Z,100955.47
2022-12-15T18:42:20.330Z,100958.00
2022-12-15T18:44:49.281Z,100962.34
2022-12-15T18:47:21.090Z,100957.28
2022-12-15T18:49:47.705Z,100953.03
2022-12-15T18:52:23.297Z,100951.28
2022-12-15T18:54:51.144Z,100956.44
2022-12-15T18:57:36.066Z,100959.03
2022-12-15T19:00:13.907Z,100965.88
2022-12-15T19:02:41.515Z,100968.47
2022-12-15T19:05:27.374Z,100972.75
2022-12-15T19:07:57.565Z,100972.72
2022-12-15T19:10:26.627Z,100973.56
2022-12-15T19:12:58.371Z,100979.53
2022-12-15T19:15:25.968Z,100981.25
2022-12-15T19:18:12.488Z,100986.38
2022-12-15T19:20:57.834Z,100994.88
2022-12-15T19:23:26.405Z,100996.53
2022-12-15T19:25:53.647Z,100998.22
2022-12-15T19:31:03.316Z,101002.41
2022-12-15T19:33:30.585Z,101003.22
2022-12-15T19:35:57.502Z,101002.38
2022-12-15T19:38:32.263Z,100992.09
2022-12-15T19:40:59.684Z,100992.09
2022-12-15T19:43:26.914Z,101000.72
2022-12-15T19:45:56.345Z,100987.94
2022-12-15T19:48:24.055Z,100987.16
2022-12-15T19:50:52.171Z,100999.13
2022-12-15T19:53:26.055Z,100993.22
2022-12-15T19:55:55.548Z,100992.41
2022-12-15T19:58:33.709Z,100996.66
2022-12-15T20:01:04.209Z,101000.97
2022-12-15T20:03:31.829Z,101004.41
2022-12-15T20:06:01.063Z,101013.78
2022-12-15T20:08:32.967Z,101014.63
2022-12-15T20:11:01.066Z,101016.34
2022-12-15T20:13:27.811Z,101006.06
2022-12-15T20:15:54.626Z,101012.84
2022-12-15T20:18:21.145Z,101010.28
2022-12-15T20:20:49.137Z,101013.66
2022-12-15T20:23:19.682Z,101013.63
2022-12-15T20:25:47.244Z,101015.31
